sensor_id;sensor_type;location;lat;lon;timestamp;P1;durP1;ratioP1;P2;durP2;ratioP2
26413;SDS011;14108;53.668;10.288;2022-09-09T00:01:49;30.60;;;20.25;;
26413;SDS011;14108;53.668;10.288;2022-09-09T00:04:19;35.05;;;21.50;;
26413;SDS011;14108;53.668;10.288;2022-09-09T00:06:50;32.13;;;20.25;;
26413;SDS011;14108;53.668;10.288;2022-09-09T00:09:20;33.08;;;20.25;;
26413;SDS011;14108;53.668;10.288;2022-09-09T00:11:50;50.12;;;25.23;;
26413;SDS011;14108;53.668;10.288;2022-09-09T00:14:20;32.75;;;21.55;;
26413;SDS011;14108;53.668;10.288;2022-09-09T00:16:51;31.83;;;20.42;;
26413;SDS011;14108;53.668;10.288;2022-09-09T00:19:20;36.13;;;21.77;;
26413;SDS011;14108;53.668;10.288;2022-09-09T00:21:50;34.97;;;20.90;;
26413;SDS011;14108;53.668;10.288;2022-09-09T00:24:23;28.77;;;19.45;;
26413;SDS011;14108;53.668;10.288;2022-09-09T00:26:52;28.62;;;19.08;;
26413;SDS011;14108;53.668;10.288;2022-09-09T00:29:22;29.98;;;19.17;;
26413;SDS011;14108;53.668;10.288;2022-09-09T00:31:53;34.03;;;21.00;;
26413;SDS011;14108;53.668;10.288;2022-09-09T00:34:23;29.37;;;19.65;;
26413;SDS011;14108;53.668;10.288;2022-09-09T00:36:52;35.90;;;21.23;;
26413;SDS011;14108;53.668;10.288;2022-09-09T00:39:21;33.25;;;20.25;;
26413;SDS011;14108;53.668;10.288;2022-09-09T00:41:52;35.35;;;20.15;;
26413;SDS011;14108;53.668;10.288;2022-09-09T00:44:27;30.48;;;19.65;;
26413;SDS011;14108;53.668;10.288;2022-09-09T00:46:58;25.12;;;17.48;;
26413;SDS011;14108;53.668;10.288;2022-09-09T00:49:32;24.67;;;16.45;;
26413;SDS011;14108;53.668;10.288;2022-09-09T00:52:06;29.52;;;18.12;;
26413;SDS011;14108;53.668;10.288;2022-09-09T00:54:37;30.42;;;19.55;;
26413;SDS011;14108;53.668;10.288;2022-09-09T00:57:21;52.75;;;22.85;;
26413;SDS011;14108;53.668;10.288;2022-09-09T00:59:51;31.87;;;20.40;;
26413;SDS011;14108;53.668;10.288;2022-09-09T01:02:25;27.08;;;18.77;;
26413;SDS011;14108;53.668;10.288;2022-09-09T01:04:53;33.15;;;20.30;;
26413;SDS011;14108;53.668;10.288;2022-09-09T01:07:20;35.60;;;20.77;;
26413;SDS011;14108;53.668;10.288;2022-09-09T01:09:55;27.65;;;18.80;;
26413;SDS011;14108;53.668;10.288;2022-09-09T01:12:26;51.65;;;23.00;;
26413;SDS011;14108;53.668;10.288;2022-09-09T01:14:56;28.20;;;18.58;;
26413;SDS011;14108;53.668;10.288;2022-09-09T01:17:30;26.55;;;17.10;;
26413;SDS011;14108;53.668;10.288;2022-09-09T01:20:03;25.58;;;17.20;;
26413;SDS011;14108;53.668;10.288;2022-09-09T01:22:34;26.02;;;17.40;;
26413;SDS011;14108;53.668;10.288;2022-09-09T01:25:11;31.98;;;18.12;;
26413;SDS011;14108;53.668;10.288;2022-09-09T01:27:41;23.58;;;15.98;;
26413;SDS011;14108;53.668;10.288;2022-09-09T01:30:10;27.33;;;18.35;;
26413;SDS011;14108;53.668;10.288;2022-09-09T01:32:39;24.52;;;16.65;;
26413;SDS011;14108;53.668;10.288;2022-09-09T01:35:08;21.12;;;14.70;;
26413;SDS011;14108;53.668;10.288;2022-09-09T01:37:36;31.70;;;18.27;;
26413;SDS011;14108;53.668;10.288;2022-09-09T01:40:04;20.23;;;13.85;;
26413;SDS011;14108;53.668;10.288;2022-09-09T01:42:31;25.08;;;16.65;;
26413;SDS011;14108;53.668;10.288;2022-09-09T01:44:58;26.83;;;15.60;;
26413;SDS011;14108;53.668;10.288;2022-09-09T01:47:25;24.25;;;16.08;;
26413;SDS011;14108;53.668;10.288;2022-09-09T01:49:52;23.65;;;15.02;;
26413;SDS011;14108;53.668;10.288;2022-09-09T01:52:19;22.05;;;14.65;;
26413;SDS011;14108;53.668;10.288;2022-09-09T01:54:46;29.92;;;17.00;;
26413;SDS011;14108;53.668;10.288;2022-09-09T01:57:15;20.05;;;14.60;;
26413;SDS011;14108;53.668;10.288;2022-09-09T01:59:47;23.30;;;15.20;;
26413;SDS011;14108;53.668;10.288;2022-09-09T02:02:16;24.50;;;16.53;;
26413;SDS011;14108;53.668;10.288;2022-09-09T02:04:44;26.33;;;14.82;;
26413;SDS011;14108;53.668;10.288;2022-09-09T02:07:19;21.85;;;14.85;;
26413;SDS011;14108;53.668;10.288;2022-09-09T02:09:49;22.02;;;14.95;;
26413;SDS011;14108;53.668;10.288;2022-09-09T02:12:18;20.58;;;14.65;;
26413;SDS011;14108;53.668;10.288;2022-09-09T02:14:49;30.60;;;17.58;;
26413;SDS011;14108;53.668;10.288;2022-09-09T02:17:18;21.52;;;15.00;;
26413;SDS011;14108;53.668;10.288;2022-09-09T02:19:48;23.52;;;15.88;;
26413;SDS011;14108;53.668;10.288;2022-09-09T02:22:16;23.20;;;16.15;;
26413;SDS011;14108;53.668;10.288;2022-09-09T02:24:44;20.67;;;13.50;;
26413;SDS011;14108;53.668;10.288;2022-09-09T02:27:11;26.25;;;16.87;;
26413;SDS011;14108;53.668;10.288;2022-09-09T02:29:40;31.98;;;17.90;;
26413;SDS011;14108;53.668;10.288;2022-09-09T02:32:09;24.35;;;15.57;;
26413;SDS011;14108;53.668;10.288;2022-09-09T02:34:38;22.60;;;15.45;;
26413;SDS011;14108;53.668;10.288;2022-09-09T02:37:06;20.23;;;14.70;;
26413;SDS011;14108;53.668;10.288;2022-09-09T02:39:34;22.70;;;15.27;;
26413;SDS011;14108;53.668;10.288;2022-09-09T02:42:02;40.95;;;18.02;;
26413;SDS011;14108;53.668;10.288;2022-09-09T02:44:30;24.98;;;15.38;;
26413;SDS011;14108;53.668;10.288;2022-09-09T02:47:09;24.08;;;15.32;;
26413;SDS011;14108;53.668;10.288;2022-09-09T02:49:40;26.08;;;16.08;;
26413;SDS011;14108;53.668;10.288;2022-09-09T02:52:10;19.30;;;13.98;;
26413;SDS011;14108;53.668;10.288;2022-09-09T02:54:41;20.17;;;14.18;;
26413;SDS011;14108;53.668;10.288;2022-09-09T02:57:10;21.05;;;14.10;;
26413;SDS011;14108;53.668;10.288;2022-09-09T02:59:38;24.75;;;16.70;;
26413;SDS011;14108;53.668;10.288;2022-09-09T03:02:05;24.30;;;16.05;;
26413;SDS011;14108;53.668;10.288;2022-09-09T03:04:32;20.60;;;14.80;;
26413;SDS011;14108;53.668;10.288;2022-09-09T03:06:59;19.42;;;13.93;;
26413;SDS011;14108;53.668;10.288;2022-09-09T03:09:26;27.48;;;16.17;;
26413;SDS011;14108;53.668;10.288;2022-09-09T03:11:53;28.02;;;16.60;;
26413;SDS011;14108;53.668;10.288;2022-09-09T03:14:21;20.23;;;14.27;;
26413;SDS011;14108;53.668;10.288;2022-09-09T03:16:50;22.05;;;15.43;;
26413;SDS011;14108;53.668;10.288;2022-09-09T03:19:17;26.65;;;17.40;;
26413;SDS011;14108;53.668;10.288;2022-09-09T03:21:44;19.30;;;14.27;;
26413;SDS011;14108;53.668;10.288;2022-09-09T03:24:11;23.62;;;16.10;;
26413;SDS011;14108;53.668;10.288;2022-09-09T03:26:38;23.90;;;16.65;;
26413;SDS011;14108;53.668;10.288;2022-09-09T03:29:06;26.60;;;16.98;;
26413;SDS011;14108;53.668;10.288;2022-09-09T03:31:33;25.60;;;16.98;;
26413;SDS011;14108;53.668;10.288;2022-09-09T03:34:01;40.85;;;20.67;;
26413;SDS011;14108;53.668;10.288;2022-09-09T03:36:28;24.42;;;17.52;;
26413;SDS011;14108;53.668;10.288;2022-09-09T03:38:55;25.58;;;16.73;;
26413;SDS011;14108;53.668;10.288;2022-09-09T03:41:23;29.15;;;18.15;;
26413;SDS011;14108;53.668;10.288;2022-09-09T03:43:50;24.85;;;16.50;;
26413;SDS011;14108;53.668;10.288;2022-09-09T03:46:18;30.60;;;19.35;;
26413;SDS011;14108;53.668;10.288;2022-09-09T03:48:45;24.27;;;16.27;;
26413;SDS011;14108;53.668;10.288;2022-09-09T03:51:12;25.92;;;17.60;;
26413;SDS011;14108;53.668;10.288;2022-09-09T03:53:39;29.35;;;18.60;;
26413;SDS011;14108;53.668;10.288;2022-09-09T03:56:06;24.12;;;16.75;;
26413;SDS011;14108;53.668;10.288;2022-09-09T03:58:33;35.75;;;18.75;;
26413;SDS011;14108;53.668;10.288;2022-09-09T04:01:01;31.08;;;18.17;;
26413;SDS011;14108;53.668;10.288;2022-09-09T04:03:28;25.62;;;16.90;;
26413;SDS011;14108;53.668;10.288;2022-09-09T04:05:56;25.42;;;16.65;;
26413;SDS011;14108;53.668;10.288;2022-09-09T04:08:23;28.55;;;17.67;;
26413;SDS011;14108;53.668;10.288;2022-09-09T04:10:51;24.37;;;16.48;;
26413;SDS011;14108;53.668;10.288;2022-09-09T04:13:18;17.73;;;12.93;;
26413;SDS011;14108;53.668;10.288;2022-09-09T04:15:50;27.77;;;17.05;;
26413;SDS011;14108;53.668;10.288;2022-09-09T04:18:18;24.37;;;16.55;;
26413;SDS011;14108;53.668;10.288;2022-09-09T04:20:46;25.88;;;16.67;;
26413;SDS011;14108;53.668;10.288;2022-09-09T04:23:13;26.62;;;16.87;;
26413;SDS011;14108;53.668;10.288;2022-09-09T04:25:43;26.62;;;17.33;;
26413;SDS011;14108;53.668;10.288;2022-09-09T04:28:10;27.08;;;16.98;;
26413;SDS011;14108;53.668;10.288;2022-09-09T04:30:37;25.05;;;15.57;;
26413;SDS011;14108;53.668;10.288;2022-09-09T04:33:05;31.80;;;17.95;;
26413;SDS011;14108;53.668;10.288;2022-09-09T04:35:33;23.87;;;16.37;;
26413;SDS011;14108;53.668;10.288;2022-09-09T04:38:00;27.02;;;17.20;;
26413;SDS011;14108;53.668;10.288;2022-09-09T04:40:28;27.75;;;17.90;;
26413;SDS011;14108;53.668;10.288;2022-09-09T04:42:55;27.48;;;17.98;;
26413;SDS011;14108;53.668;10.288;2022-09-09T04:45:24;26.05;;;16.62;;
26413;SDS011;14108;53.668;10.288;2022-09-09T04:47:51;27.27;;;17.48;;
26413;SDS011;14108;53.668;10.288;2022-09-09T04:50:18;28.00;;;18.23;;
26413;SDS011;14108;53.668;10.288;2022-09-09T04:52:45;31.15;;;18.95;;
26413;SDS011;14108;53.668;10.288;2022-09-09T04:55:13;24.33;;;16.48;;
26413;SDS011;14108;53.668;10.288;2022-09-09T04:57:40;33.78;;;19.10;;
26413;SDS011;14108;53.668;10.288;2022-09-09T05:00:08;23.38;;;16.00;;
26413;SDS011;14108;53.668;10.288;2022-09-09T05:02:37;23.58;;;15.93;;
26413;SDS011;14108;53.668;10.288;2022-09-09T05:05:04;29.30;;;18.52;;
26413;SDS011;14108;53.668;10.288;2022-09-09T05:07:31;24.17;;;16.60;;
26413;SDS011;14108;53.668;10.288;2022-09-09T05:09:58;24.48;;;15.57;;
26413;SDS011;14108;53.668;10.288;2022-09-09T05:12:25;24.17;;;16.10;;
26413;SDS011;14108;53.668;10.288;2022-09-09T05:14:52;23.98;;;16.15;;
26413;SDS011;14108;53.668;10.288;2022-09-09T05:17:19;25.75;;;16.80;;
26413;SDS011;14108;53.668;10.288;2022-09-09T05:19:46;25.85;;;15.00;;
26413;SDS011;14108;53.668;10.288;2022-09-09T05:22:14;21.17;;;14.25;;
26413;SDS011;14108;53.668;10.288;2022-09-09T05:24:44;20.48;;;14.60;;
26413;SDS011;14108;53.668;10.288;2022-09-09T05:27:11;20.20;;;14.27;;
26413;SDS011;14108;53.668;10.288;2022-09-09T05:29:38;21.42;;;14.23;;
26413;SDS011;14108;53.668;10.288;2022-09-09T05:32:07;19.52;;;14.00;;
26413;SDS011;14108;53.668;10.288;2022-09-09T05:34:35;25.08;;;15.85;;
26413;SDS011;14108;53.668;10.288;2022-09-09T05:37:03;19.55;;;13.55;;
26413;SDS011;14108;53.668;10.288;2022-09-09T05:39:30;17.95;;;12.98;;
26413;SDS011;14108;53.668;10.288;2022-09-09T05:41:58;22.05;;;13.50;;
26413;SDS011;14108;53.668;10.288;2022-09-09T05:44:25;16.98;;;12.48;;
26413;SDS011;14108;53.668;10.288;2022-09-09T05:46:53;17.98;;;11.95;;
26413;SDS011;14108;53.668;10.288;2022-09-09T05:49:20;16.62;;;12.18;;
26413;SDS011;14108;53.668;10.288;2022-09-09T05:51:47;14.85;;;9.88;;
26413;SDS011;14108;53.668;10.288;2022-09-09T05:54:16;14.95;;;10.50;;
26413;SDS011;14108;53.668;10.288;2022-09-09T05:56:43;12.70;;;9.88;;
26413;SDS011;14108;53.668;10.288;2022-09-09T05:59:10;14.77;;;9.65;;
26413;SDS011;14108;53.668;10.288;2022-09-09T06:01:38;14.15;;;10.02;;
26413;SDS011;14108;53.668;10.288;2022-09-09T06:04:06;14.02;;;10.32;;
26413;SDS011;14108;53.668;10.288;2022-09-09T06:06:33;16.58;;;9.20;;
26413;SDS011;14108;53.668;10.288;2022-09-09T06:09:02;13.35;;;9.55;;
26413;SDS011;14108;53.668;10.288;2022-09-09T06:11:32;15.45;;;10.68;;
26413;SDS011;14108;53.668;10.288;2022-09-09T06:14:01;11.38;;;8.52;;
26413;SDS011;14108;53.668;10.288;2022-09-09T06:16:28;12.65;;;9.25;;
26413;SDS011;14108;53.668;10.288;2022-09-09T06:18:56;12.75;;;9.18;;
26413;SDS011;14108;53.668;10.288;2022-09-09T06:21:24;14.98;;;9.35;;
26413;SDS011;14108;53.668;10.288;2022-09-09T06:23:51;10.88;;;8.13;;
26413;SDS011;14108;53.668;10.288;2022-09-09T06:26:19;10.68;;;8.40;;
26413;SDS011;14108;53.668;10.288;2022-09-09T06:28:46;11.55;;;9.10;;
26413;SDS011;14108;53.668;10.288;2022-09-09T06:31:15;10.95;;;7.87;;
26413;SDS011;14108;53.668;10.288;2022-09-09T06:33:43;9.73;;;7.78;;
26413;SDS011;14108;53.668;10.288;2022-09-09T06:36:11;12.75;;;9.10;;
26413;SDS011;14108;53.668;10.288;2022-09-09T06:38:38;13.90;;;9.05;;
26413;SDS011;14108;53.668;10.288;2022-09-09T06:41:05;13.15;;;7.85;;
26413;SDS011;14108;53.668;10.288;2022-09-09T06:43:32;13.50;;;8.68;;
26413;SDS011;14108;53.668;10.288;2022-09-09T06:46:01;11.57;;;7.87;;
26413;SDS011;14108;53.668;10.288;2022-09-09T06:48:28;12.82;;;6.87;;
26413;SDS011;14108;53.668;10.288;2022-09-09T06:51:02;10.55;;;6.70;;
26413;SDS011;14108;53.668;10.288;2022-09-09T06:53:29;11.45;;;8.05;;
26413;SDS011;14108;53.668;10.288;2022-09-09T06:55:56;8.80;;;6.30;;
26413;SDS011;14108;53.668;10.288;2022-09-09T06:58:23;10.25;;;6.95;;
26413;SDS011;14108;53.668;10.288;2022-09-09T07:00:50;7.82;;;6.10;;
26413;SDS011;14108;53.668;10.288;2022-09-09T07:03:16;10.68;;;5.90;;
26413;SDS011;14108;53.668;10.288;2022-09-09T07:05:43;9.57;;;6.05;;
26413;SDS011;14108;53.668;10.288;2022-09-09T07:08:19;8.68;;;5.75;;
26413;SDS011;14108;53.668;10.288;2022-09-09T07:10:47;7.82;;;5.70;;
26413;SDS011;14108;53.668;10.288;2022-09-09T07:13:14;7.25;;;5.15;;
26413;SDS011;14108;53.668;10.288;2022-09-09T07:15:41;8.60;;;5.32;;
26413;SDS011;14108;53.668;10.288;2022-09-09T07:18:08;11.18;;;5.50;;
26413;SDS011;14108;53.668;10.288;2022-09-09T07:20:35;7.65;;;5.05;;
26413;SDS011;14108;53.668;10.288;2022-09-09T07:23:02;6.05;;;4.28;;
26413;SDS011;14108;53.668;10.288;2022-09-09T07:25:29;9.15;;;5.12;;
26413;SDS011;14108;53.668;10.288;2022-09-09T07:27:56;5.15;;;4.30;;
26413;SDS011;14108;53.668;10.288;2022-09-09T07:30:23;8.55;;;5.05;;
26413;SDS011;14108;53.668;10.288;2022-09-09T07:32:51;10.85;;;4.87;;
26413;SDS011;14108;53.668;10.288;2022-09-09T07:35:18;7.22;;;4.72;;
26413;SDS011;14108;53.668;10.288;2022-09-09T07:37:45;7.60;;;4.85;;
26413;SDS011;14108;53.668;10.288;2022-09-09T07:40:12;4.53;;;4.05;;
26413;SDS011;14108;53.668;10.288;2022-09-09T07:42:40;7.50;;;4.80;;
26413;SDS011;14108;53.668;10.288;2022-09-09T07:45:07;7.62;;;4.55;;
26413;SDS011;14108;53.668;10.288;2022-09-09T07:47:34;5.78;;;4.43;;
26413;SDS011;14108;53.668;10.288;2022-09-09T07:50:01;4.85;;;4.28;;
26413;SDS011;14108;53.668;10.288;2022-09-09T07:52:28;6.43;;;4.40;;
26413;SDS011;14108;53.668;10.288;2022-09-09T07:54:55;6.12;;;4.43;;
26413;SDS011;14108;53.668;10.288;2022-09-09T07:57:22;8.68;;;3.80;;
26413;SDS011;14108;53.668;10.288;2022-09-09T07:59:49;9.00;;;4.65;;
26413;SDS011;14108;53.668;10.288;2022-09-09T08:02:17;6.37;;;4.00;;
26413;SDS011;14108;53.668;10.288;2022-09-09T08:04:44;9.85;;;4.30;;
26413;SDS011;14108;53.668;10.288;2022-09-09T08:07:11;4.68;;;3.58;;
26413;SDS011;14108;53.668;10.288;2022-09-09T08:09:39;5.18;;;3.65;;
26413;SDS011;14108;53.668;10.288;2022-09-09T08:12:06;5.93;;;4.20;;
26413;SDS011;14108;53.668;10.288;2022-09-09T08:14:33;7.30;;;4.10;;
26413;SDS011;14108;53.668;10.288;2022-09-09T08:17:01;5.68;;;3.42;;
26413;SDS011;14108;53.668;10.288;2022-09-09T08:19:27;5.00;;;3.22;;
26413;SDS011;14108;53.668;10.288;2022-09-09T08:21:55;4.80;;;3.72;;
26413;SDS011;14108;53.668;10.288;2022-09-09T08:24:22;4.45;;;3.92;;
26413;SDS011;14108;53.668;10.288;2022-09-09T08:26:49;4.75;;;3.20;;
26413;SDS011;14108;53.668;10.288;2022-09-09T08:29:16;3.40;;;3.08;;
26413;SDS011;14108;53.668;10.288;2022-09-09T08:31:44;6.90;;;3.33;;
26413;SDS011;14108;53.668;10.288;2022-09-09T08:34:11;8.50;;;3.90;;
26413;SDS011;14108;53.668;10.288;2022-09-09T08:36:38;3.50;;;2.83;;
26413;SDS011;14108;53.668;10.288;2022-09-09T08:39:08;4.57;;;3.17;;
26413;SDS011;14108;53.668;10.288;2022-09-09T08:41:37;3.97;;;2.92;;
26413;SDS011;14108;53.668;10.288;2022-09-09T08:44:07;5.18;;;3.20;;
26413;SDS011;14108;53.668;10.288;2022-09-09T08:46:38;7.55;;;4.47;;
26413;SDS011;14108;53.668;10.288;2022-09-09T08:49:12;5.07;;;2.70;;
26413;SDS011;14108;53.668;10.288;2022-09-09T08:51:43;3.92;;;2.97;;
26413;SDS011;14108;53.668;10.288;2022-09-09T08:54:10;5.47;;;2.90;;
26413;SDS011;14108;53.668;10.288;2022-09-09T08:56:37;3.95;;;2.85;;
26413;SDS011;14108;53.668;10.288;2022-09-09T08:59:04;4.78;;;3.10;;
26413;SDS011;14108;53.668;10.288;2022-09-09T09:01:45;4.62;;;3.20;;
26413;SDS011;14108;53.668;10.288;2022-09-09T09:04:21;3.67;;;3.10;;
26413;SDS011;14108;53.668;10.288;2022-09-09T09:06:54;5.00;;;3.15;;
26413;SDS011;14108;53.668;10.288;2022-09-09T09:09:27;3.08;;;2.37;;
26413;SDS011;14108;53.668;10.288;2022-09-09T09:11:58;3.97;;;2.58;;
26413;SDS011;14108;53.668;10.288;2022-09-09T09:14:27;5.95;;;2.92;;
26413;SDS011;14108;53.668;10.288;2022-09-09T09:16:56;3.67;;;2.50;;
26413;SDS011;14108;53.668;10.288;2022-09-09T09:19:24;3.60;;;2.45;;
26413;SDS011;14108;53.668;10.288;2022-09-09T09:21:53;3.17;;;1.90;;
26413;SDS011;14108;53.668;10.288;2022-09-09T09:24:23;4.18;;;2.15;;
26413;SDS011;14108;53.668;10.288;2022-09-09T09:26:52;3.22;;;1.80;;
26413;SDS011;14108;53.668;10.288;2022-09-09T09:29:20;3.55;;;2.40;;
26413;SDS011;14108;53.668;10.288;2022-09-09T09:31:48;4.03;;;1.83;;
26413;SDS011;14108;53.668;10.288;2022-09-09T09:34:17;5.47;;;2.15;;
26413;SDS011;14108;53.668;10.288;2022-09-09T09:36:44;2.58;;;1.55;;
26413;SDS011;14108;53.668;10.288;2022-09-09T09:39:22;4.68;;;2.10;;
26413;SDS011;14108;53.668;10.288;2022-09-09T09:41:50;2.92;;;2.15;;
26413;SDS011;14108;53.668;10.288;2022-09-09T09:44:24;3.85;;;2.22;;
26413;SDS011;14108;53.668;10.288;2022-09-09T09:46:51;2.28;;;2.08;;
26413;SDS011;14108;53.668;10.288;2022-09-09T09:49:19;6.37;;;2.05;;
26413;SDS011;14108;53.668;10.288;2022-09-09T09:51:46;5.62;;;2.05;;
26413;SDS011;14108;53.668;10.288;2022-09-09T09:54:20;7.28;;;2.42;;
26413;SDS011;14108;53.668;10.288;2022-09-09T09:56:48;3.65;;;1.90;;
26413;SDS011;14108;53.668;10.288;2022-09-09T09:59:34;3.70;;;2.10;;
26413;SDS011;14108;53.668;10.288;2022-09-09T10:02:13;4.97;;;2.28;;
26413;SDS011;14108;53.668;10.288;2022-09-09T10:04:41;4.25;;;2.28;;
26413;SDS011;14108;53.668;10.288;2022-09-09T10:07:10;4.28;;;1.67;;
26413;SDS011;14108;53.668;10.288;2022-09-09T10:09:37;5.20;;;1.98;;
26413;SDS011;14108;53.668;10.288;2022-09-09T10:12:07;2.65;;;1.20;;
26413;SDS011;14108;53.668;10.288;2022-09-09T10:14:39;3.03;;;1.50;;
26413;SDS011;14108;53.668;10.288;2022-09-09T10:17:16;1.90;;;1.67;;
26413;SDS011;14108;53.668;10.288;2022-09-09T10:19:50;2.50;;;1.87;;
26413;SDS011;14108;53.668;10.288;2022-09-09T10:22:25;4.15;;;1.42;;
26413;SDS011;14108;53.668;10.288;2022-09-09T10:24:57;3.75;;;1.85;;
26413;SDS011;14108;53.668;10.288;2022-09-09T10:27:27;5.90;;;2.05;;
26413;SDS011;14108;53.668;10.288;2022-09-09T10:30:01;5.15;;;1.80;;
26413;SDS011;14108;53.668;10.288;2022-09-09T10:32:36;4.60;;;1.50;;
26413;SDS011;14108;53.668;10.288;2022-09-09T10:35:08;2.92;;;1.20;;
26413;SDS011;14108;53.668;10.288;2022-09-09T10:37:46;2.92;;;1.55;;
26413;SDS011;14108;53.668;10.288;2022-09-09T10:40:20;1.98;;;1.10;;
26413;SDS011;14108;53.668;10.288;2022-09-09T10:42:50;1.92;;;1.20;;
26413;SDS011;14108;53.668;10.288;2022-09-09T10:45:17;3.47;;;1.23;;
26413;SDS011;14108;53.668;10.288;2022-09-09T10:47:56;3.37;;;1.50;;
26413;SDS011;14108;53.668;10.288;2022-09-09T10:50:29;2.53;;;1.10;;
26413;SDS011;14108;53.668;10.288;2022-09-09T10:53:01;3.12;;;1.50;;
26413;SDS011;14108;53.668;10.288;2022-09-09T10:55:32;3.10;;;1.30;;
26413;SDS011;14108;53.668;10.288;2022-09-09T10:58:02;5.12;;;1.60;;
26413;SDS011;14108;53.668;10.288;2022-09-09T11:00:31;3.65;;;1.27;;
26413;SDS011;14108;53.668;10.288;2022-09-09T11:05:31;3.25;;;1.20;;
26413;SDS011;14108;53.668;10.288;2022-09-09T11:07:59;6.00;;;2.85;;
26413;SDS011;14108;53.668;10.288;2022-09-09T11:10:29;2.62;;;1.37;;
26413;SDS011;14108;53.668;10.288;2022-09-09T11:13:00;1.85;;;1.00;;
26413;SDS011;14108;53.668;10.288;2022-09-09T11:15:31;2.50;;;1.30;;
26413;SDS011;14108;53.668;10.288;2022-09-09T11:18:01;4.35;;;1.30;;
26413;SDS011;14108;53.668;10.288;2022-09-09T11:20:31;1.33;;;0.93;;
26413;SDS011;14108;53.668;10.288;2022-09-09T11:22:59;2.37;;;1.20;;
26413;SDS011;14108;53.668;10.288;2022-09-09T11:25:29;2.85;;;1.50;;
26413;SDS011;14108;53.668;10.288;2022-09-09T11:28:01;3.00;;;1.40;;
26413;SDS011;14108;53.668;10.288;2022-09-09T11:30:33;4.32;;;1.33;;
26413;SDS011;14108;53.668;10.288;2022-09-09T11:35:54;1.73;;;1.17;;
26413;SDS011;14108;53.668;10.288;2022-09-09T11:38:25;2.97;;;1.20;;
26413;SDS011;14108;53.668;10.288;2022-09-09T11:40:56;2.90;;;1.95;;
26413;SDS011;14108;53.668;10.288;2022-09-09T11:43:25;2.08;;;1.10;;
26413;SDS011;14108;53.668;10.288;2022-09-09T11:45:54;1.87;;;1.05;;
26413;SDS011;14108;53.668;10.288;2022-09-09T11:48:25;2.45;;;1.20;;
26413;SDS011;14108;53.668;10.288;2022-09-09T11:50:59;2.60;;;1.30;;
26413;SDS011;14108;53.668;10.288;2022-09-09T11:53:26;2.60;;;1.30;;
26413;SDS011;14108;53.668;10.288;2022-09-09T11:56:00;2.12;;;1.02;;
26413;SDS011;14108;53.668;10.288;2022-09-09T11:58:29;2.35;;;1.05;;
26413;SDS011;14108;53.668;10.288;2022-09-09T12:00:58;1.58;;;0.93;;
26413;SDS011;14108;53.668;10.288;2022-09-09T12:03:39;3.08;;;1.33;;
26413;SDS011;14108;53.668;10.288;2022-09-09T12:06:11;2.67;;;1.10;;
26413;SDS011;14108;53.668;10.288;2022-09-09T12:08:41;3.70;;;1.37;;
26413;SDS011;14108;53.668;10.288;2022-09-09T12:11:11;2.78;;;1.00;;
26413;SDS011;14108;53.668;10.288;2022-09-09T12:13:37;1.17;;;0.90;;
26413;SDS011;14108;53.668;10.288;2022-09-09T12:16:05;2.90;;;1.10;;
26413;SDS011;14108;53.668;10.288;2022-09-09T12:19:02;4.00;;;1.25;;
26413;SDS011;14108;53.668;10.288;2022-09-09T12:21:31;0.73;;;0.70;;
26413;SDS011;14108;53.668;10.288;2022-09-09T12:24:02;2.55;;;1.00;;
26413;SDS011;14108;53.668;10.288;2022-09-09T12:26:33;2.17;;;0.80;;
26413;SDS011;14108;53.668;10.288;2022-09-09T12:29:04;2.50;;;1.48;;
26413;SDS011;14108;53.668;10.288;2022-09-09T12:31:34;1.80;;;1.23;;
26413;SDS011;14108;53.668;10.288;2022-09-09T12:34:04;1.65;;;1.20;;
26413;SDS011;14108;53.668;10.288;2022-09-09T12:36:36;1.33;;;1.20;;
26413;SDS011;14108;53.668;10.288;2022-09-09T12:39:10;1.35;;;1.00;;
26413;SDS011;14108;53.668;10.288;2022-09-09T12:41:37;2.85;;;1.10;;
26413;SDS011;14108;53.668;10.288;2022-09-09T12:44:04;2.70;;;1.10;;
26413;SDS011;14108;53.668;10.288;2022-09-09T12:46:32;3.37;;;1.30;;
26413;SDS011;14108;53.668;10.288;2022-09-09T12:49:02;4.50;;;1.45;;
26413;SDS011;14108;53.668;10.288;2022-09-09T12:51:30;3.60;;;1.30;;
26413;SDS011;14108;53.668;10.288;2022-09-09T12:53:57;4.60;;;1.60;;
26413;SDS011;14108;53.668;10.288;2022-09-09T12:56:25;2.83;;;1.37;;
26413;SDS011;14108;53.668;10.288;2022-09-09T12:58:53;5.18;;;1.83;;
26413;SDS011;14108;53.668;10.288;2022-09-09T13:01:21;1.80;;;1.40;;
26413;SDS011;14108;53.668;10.288;2022-09-09T13:03:48;1.87;;;1.25;;
26413;SDS011;14108;53.668;10.288;2022-09-09T13:06:19;2.62;;;1.60;;
26413;SDS011;14108;53.668;10.288;2022-09-09T13:08:48;2.72;;;1.20;;
26413;SDS011;14108;53.668;10.288;2022-09-09T13:11:16;2.62;;;1.42;;
26413;SDS011;14108;53.668;10.288;2022-09-09T13:13:49;2.22;;;1.30;;
26413;SDS011;14108;53.668;10.288;2022-09-09T13:16:19;1.65;;;1.50;;
26413;SDS011;14108;53.668;10.288;2022-09-09T13:18:46;1.58;;;1.27;;
26413;SDS011;14108;53.668;10.288;2022-09-09T13:21:13;4.12;;;1.73;;
26413;SDS011;14108;53.668;10.288;2022-09-09T13:23:40;2.22;;;1.40;;
26413;SDS011;14108;53.668;10.288;2022-09-09T13:26:19;2.35;;;1.60;;
26413;SDS011;14108;53.668;10.288;2022-09-09T13:28:47;4.10;;;1.50;;
26413;SDS011;14108;53.668;10.288;2022-09-09T13:31:19;3.33;;;1.75;;
26413;SDS011;14108;53.668;10.288;2022-09-09T13:33:47;4.20;;;1.23;;
26413;SDS011;14108;53.668;10.288;2022-09-09T13:36:14;3.10;;;1.40;;
26413;SDS011;14108;53.668;10.288;2022-09-09T13:38:52;2.53;;;1.25;;
26413;SDS011;14108;53.668;10.288;2022-09-09T13:41:20;3.55;;;1.23;;
26413;SDS011;14108;53.668;10.288;2022-09-09T13:43:49;1.45;;;1.10;;
26413;SDS011;14108;53.668;10.288;2022-09-09T13:46:25;1.67;;;1.40;;
26413;SDS011;14108;53.668;10.288;2022-09-09T13:48:56;2.20;;;1.40;;
26413;SDS011;14108;53.668;10.288;2022-09-09T13:51:28;2.87;;;1.30;;
26413;SDS011;14108;53.668;10.288;2022-09-09T13:53:56;2.27;;;1.30;;
26413;SDS011;14108;53.668;10.288;2022-09-09T13:56:23;3.03;;;1.40;;
26413;SDS011;14108;53.668;10.288;2022-09-09T13:58:50;2.65;;;1.35;;
26413;SDS011;14108;53.668;10.288;2022-09-09T14:01:17;5.32;;;1.65;;
26413;SDS011;14108;53.668;10.288;2022-09-09T14:03:44;1.83;;;1.30;;
26413;SDS011;14108;53.668;10.288;2022-09-09T14:06:11;5.20;;;1.52;;
26413;SDS011;14108;53.668;10.288;2022-09-09T14:08:39;3.92;;;1.30;;
26413;SDS011;14108;53.668;10.288;2022-09-09T14:11:07;2.10;;;1.20;;
26413;SDS011;14108;53.668;10.288;2022-09-09T14:13:36;5.12;;;1.60;;
26413;SDS011;14108;53.668;10.288;2022-09-09T14:16:03;4.10;;;1.25;;
26413;SDS011;14108;53.668;10.288;2022-09-09T14:18:30;1.80;;;0.90;;
26413;SDS011;14108;53.668;10.288;2022-09-09T14:20:57;3.42;;;1.42;;
26413;SDS011;14108;53.668;10.288;2022-09-09T14:23:24;3.67;;;1.33;;
26413;SDS011;14108;53.668;10.288;2022-09-09T14:25:51;4.03;;;1.12;;
26413;SDS011;14108;53.668;10.288;2022-09-09T14:28:18;5.15;;;1.40;;
26413;SDS011;14108;53.668;10.288;2022-09-09T14:30:45;1.95;;;1.15;;
26413;SDS011;14108;53.668;10.288;2022-09-09T14:33:13;1.52;;;1.00;;
26413;SDS011;14108;53.668;10.288;2022-09-09T14:35:40;3.60;;;1.45;;
26413;SDS011;14108;53.668;10.288;2022-09-09T14:38:08;5.05;;;2.15;;
26413;SDS011;14108;53.668;10.288;2022-09-09T14:40:35;2.85;;;1.40;;